createdAt,value
2019-01-24T00:00:25.233Z,-0.14
2019-01-24T00:00:51.337Z,-0.11
2019-01-24T00:01:17.930Z,-0.1
2019-01-24T00:01:44.031Z,-0.08
2019-01-24T00:02:10.141Z,-0.07
2019-01-24T00:02:36.299Z,-0.02
2019-01-24T00:03:02.402Z,-0.08
2019-01-24T00:03:28.510Z,0.05
2019-01-24T00:03:54.611Z,0.04
2019-01-24T00:04:22.187Z,0
2019-01-24T00:04:48.318Z,0
2019-01-24T00:05:14.448Z,-0.03
2019-01-24T00:05:40.546Z,0.01
2019-01-24T00:06:06.682Z,-0.07
2019-01-24T00:06:32.781Z,-0.07
2019-01-24T00:06:58.884Z,-0.02
2019-01-24T00:07:25.012Z,0.01
2019-01-24T00:07:51.119Z,0.04
2019-01-24T00:08:17.223Z,0.04
2019-01-24T00:08:43.332Z,0.01
2019-01-24T00:09:09.434Z,-0.03
2019-01-24T00:09:35.531Z,-0.03
2019-01-24T00:10:01.670Z,0.01
2019-01-24T00:10:27.775Z,-0.11
2019-01-24T00:10:53.876Z,-0.08
2019-01-24T00:11:19.981Z,-0.11
2019-01-24T00:11:46.090Z,-0.08
2019-01-24T00:12:12.192Z,-0.15
2019-01-24T00:12:38.295Z,-0.11
2019-01-24T00:13:04.401Z,-0.1
2019-01-24T00:13:30.534Z,-0.11
2019-01-24T00:13:56.642Z,-0.1
2019-01-24T00:14:22.778Z,-0.08
2019-01-24T00:14:48.862Z,-0.1
2019-01-24T00:15:14.964Z,-0.06
2019-01-24T00:15:41.087Z,-0.13
2019-01-24T00:16:07.208Z,-0.11
2019-01-24T00:16:33.416Z,-0.11
2019-01-24T00:16:59.520Z,-0.13
2019-01-24T00:17:25.625Z,-0.06
2019-01-24T00:17:51.726Z,-0.11
2019-01-24T00:18:17.859Z,-0.06
2019-01-24T00:18:44.017Z,-0.07
2019-01-24T00:19:10.115Z,-0.07
2019-01-24T00:19:36.218Z,-0.1
2019-01-24T00:20:02.325Z,-0.17
2019-01-24T00:20:28.428Z,-0.1
2019-01-24T00:20:54.530Z,-0.14
2019-01-24T00:21:20.630Z,-0.14
2019-01-24T00:21:46.744Z,-0.14
2019-01-24T00:22:12.842Z,-0.26
2019-01-24T00:22:38.939Z,-0.23
2019-01-24T00:23:05.057Z,-0.32
2019-01-24T00:23:31.149Z,-0.35
2019-01-24T00:23:57.253Z,-0.25
2019-01-24T00:24:23.387Z,-0.35
2019-01-24T00:24:49.488Z,-0.49
2019-01-24T00:25:15.583Z,-0.43
2019-01-24T00:25:41.692Z,-0.44
2019-01-24T00:26:07.821Z,-0.43
2019-01-24T00:26:33.927Z,-0.41
2019-01-24T00:27:00.036Z,-0.41
2019-01-24T00:27:26.143Z,-0.46
2019-01-24T00:27:52.279Z,-0.36
2019-01-24T00:28:18.396Z,-0.38
2019-01-24T00:28:44.497Z,-0.41
2019-01-24T00:29:10.602Z,-0.38
2019-01-24T00:29:36.719Z,-0.39
2019-01-24T00:30:02.841Z,-0.32
2019-01-24T00:30:28.969Z,-0.34
2019-01-24T00:30:55.104Z,-0.39
2019-01-24T00:31:21.201Z,-0.39
2019-01-24T00:31:47.308Z,-0.35
2019-01-24T00:32:13.410Z,-0.39
2019-01-24T00:32:39.544Z,-0.34
2019-01-24T00:33:05.644Z,-0.31
2019-01-24T00:33:31.782Z,-0.34
2019-01-24T00:33:57.888Z,-0.32
2019-01-24T00:34:24.983Z,-0.34
2019-01-24T00:34:51.135Z,-0.31
2019-01-24T00:35:17.251Z,-0.29
2019-01-24T00:35:43.354Z,-0.25
2019-01-24T00:36:09.452Z,-0.25
2019-01-24T00:36:35.545Z,-0.18
2019-01-24T00:37:01.659Z,-0.29
2019-01-24T00:37:27.757Z,-0.28
2019-01-24T00:37:53.887Z,-0.2
2019-01-24T00:38:19.999Z,-0.21
2019-01-24T00:38:46.098Z,-0.26
2019-01-24T00:39:12.197Z,-0.21
2019-01-24T00:39:38.302Z,-0.26
2019-01-24T00:40:04.404Z,-0.28
2019-01-24T00:40:30.537Z,-0.15
2019-01-24T00:40:56.666Z,-0.15
2019-01-24T00:41:22.794Z,-0.1
2019-01-24T00:41:48.893Z,-0.1
2019-01-24T00:42:15.027Z,-0.1
2019-01-24T00:42:41.131Z,-0.08
2019-01-24T00:43:07.231Z,-0.1
2019-01-24T00:43:33.335Z,-0.06
2019-01-24T00:43:59.435Z,-0.03
2019-01-24T00:44:25.538Z,-0.08
2019-01-24T00:44:51.643Z,-0.11
2019-01-24T00:45:17.757Z,-0.07
2019-01-24T00:45:43.930Z,-0.03
2019-01-24T00:46:10.034Z,-0.08
2019-01-24T00:46:36.149Z,-0.07
2019-01-24T00:47:02.232Z,-0.02
2019-01-24T00:47:28.328Z,-0.14
2019-01-24T00:47:54.437Z,-0.1
2019-01-24T00:48:20.532Z,-0.08
2019-01-24T00:48:46.642Z,-0.11
2019-01-24T00:49:12.740Z,-0.1
2019-01-24T00:49:38.875Z,-0.11
2019-01-24T00:50:05.005Z,-0.18
2019-01-24T00:50:31.107Z,-0.26
2019-01-24T00:50:57.212Z,-0.32
2019-01-24T00:51:23.342Z,-0.35
2019-01-24T00:51:49.444Z,-0.34
2019-01-24T00:52:15.543Z,-0.39
2019-01-24T00:52:41.680Z,-0.29
2019-01-24T00:53:07.780Z,-0.29
2019-01-24T00:53:33.883Z,-0.35
2019-01-24T00:53:59.989Z,-0.36
2019-01-24T00:54:26.121Z,-0.26
2019-01-24T00:54:52.222Z,-0.41
2019-01-24T00:55:18.326Z,-0.35
2019-01-24T00:55:44.426Z,-0.36
2019-01-24T00:56:10.558Z,-0.41
2019-01-24T00:56:36.664Z,-0.35
2019-01-24T00:57:02.765Z,-0.34
2019-01-24T00:57:28.865Z,-0.36
2019-01-24T00:57:54.974Z,-0.35
2019-01-24T00:58:21.081Z,-0.39
2019-01-24T00:58:47.182Z,-0.34
2019-01-24T00:59:13.288Z,-0.26
2019-01-24T00:59:39.385Z,-0.29
2019-01-24T01:00:05.493Z,-0.31
2019-01-24T01:00:31.594Z,-0.31
2019-01-24T01:00:57.727Z,-0.32
2019-01-24T01:01:23.824Z,-0.25
2019-01-24T01:01:49.927Z,-0.31
2019-01-24T01:02:16.026Z,-0.17
2019-01-24T01:02:42.133Z,-0.25
2019-01-24T01:03:08.235Z,-0.26
2019-01-24T01:03:34.373Z,-0.31
2019-01-24T01:04:00.472Z,-0.31
2019-01-24T01:04:29.629Z,-0.32
2019-01-24T01:04:53.663Z,-0.39
2019-01-24T01:05:19.802Z,-0.41
2019-01-24T01:05:45.929Z,-0.35
2019-01-24T01:06:12.036Z,-0.34
2019-01-24T01:06:38.131Z,-0.36
2019-01-24T01:07:04.265Z,-0.31
2019-01-24T01:07:30.364Z,-0.39
2019-01-24T01:07:56.472Z,-0.36
2019-01-24T01:08:22.569Z,-0.41
2019-01-24T01:08:48.702Z,-0.36
2019-01-24T01:09:14.805Z,-0.38
2019-01-24T01:09:40.946Z,-0.32
2019-01-24T01:10:07.074Z,-0.31
2019-01-24T01:10:33.176Z,-0.41
2019-01-24T01:10:59.281Z,-0.43
2019-01-24T01:11:25.381Z,-0.47
2019-01-24T01:11:51.522Z,-0.57
2019-01-24T01:12:17.624Z,-0.65
2019-01-24T01:12:43.728Z,-0.74
2019-01-24T01:13:09.829Z,-0.7
2019-01-24T01:13:35.922Z,-0.7
2019-01-24T01:14:02.025Z,-0.71
2019-01-24T01:14:28.128Z,-0.7
2019-01-24T01:14:54.229Z,-0.68
2019-01-24T01:15:20.336Z,-0.67
2019-01-24T01:15:46.513Z,-0.64
2019-01-24T01:16:12.557Z,-0.62
2019-01-24T01:16:38.663Z,-0.64
2019-01-24T01:17:04.766Z,-0.62
2019-01-24T01:17:30.897Z,-0.67
2019-01-24T01:17:56.961Z,-0.65
2019-01-24T01:18:23.095Z,-0.54
2019-01-24T01:18:49.198Z,-0.62
2019-01-24T01:19:15.324Z,-0.53
2019-01-24T01:19:41.421Z,-0.54
2019-01-24T01:20:07.526Z,-0.57
2019-01-24T01:20:33.629Z,-0.54
2019-01-24T01:20:59.733Z,-0.53
2019-01-24T01:21:25.838Z,-0.56
2019-01-24T01:21:51.963Z,-0.5
2019-01-24T01:22:18.070Z,-0.52
2019-01-24T01:22:44.201Z,-0.52
2019-01-24T01:23:10.305Z,-0.5
2019-01-24T01:23:36.407Z,-0.46
2019-01-24T01:24:02.518Z,-0.36
2019-01-24T01:24:28.642Z,-0.46
2019-01-24T01:24:54.741Z,-0.49
2019-01-24T01:25:20.842Z,-0.49
2019-01-24T01:25:46.947Z,-0.49
2019-01-24T01:26:13.052Z,-0.43
2019-01-24T01:26:39.149Z,-0.49
2019-01-24T01:27:05.252Z,-0.54
2019-01-24T01:27:31.356Z,-0.52
2019-01-24T01:27:57.489Z,-0.57
2019-01-24T01:28:23.596Z,-0.53
2019-01-24T01:28:49.703Z,-0.49
2019-01-24T01:29:15.835Z,-0.47
2019-01-24T01:29:41.976Z,-0.38
2019-01-24T01:30:08.073Z,-0.46
2019-01-24T01:30:34.202Z,-0.39
2019-01-24T01:31:00.306Z,-0.38
2019-01-24T01:31:26.412Z,-0.35
2019-01-24T01:31:52.515Z,-0.52
2019-01-24T01:32:18.624Z,-0.49
2019-01-24T01:32:44.752Z,-0.44
2019-01-24T01:33:10.854Z,-0.46
2019-01-24T01:33:36.985Z,-0.46
2019-01-24T01:34:03.088Z,-0.44
2019-01-24T01:34:29.190Z,-0.43
2019-01-24T01:34:55.308Z,-0.44
2019-01-24T01:35:21.414Z,-0.41
2019-01-24T01:35:47.514Z,-0.34
2019-01-24T01:36:13.622Z,-0.35
2019-01-24T01:36:39.716Z,-0.36
2019-01-24T01:37:05.830Z,-0.38
2019-01-24T01:37:31.935Z,-0.43
2019-01-24T01:37:58.036Z,-0.39
2019-01-24T01:38:24.177Z,-0.35
2019-01-24T01:38:50.277Z,-0.41
2019-01-24T01:39:16.379Z,-0.38
2019-01-24T01:39:42.487Z,-0.44
2019-01-24T01:40:08.588Z,-0.44
2019-01-24T01:40:34.720Z,-0.34
2019-01-24T01:41:00.828Z,-0.39
2019-01-24T01:41:26.930Z,-0.36
2019-01-24T01:41:53.070Z,-0.36
2019-01-24T01:42:19.171Z,-0.35
2019-01-24T01:42:45.268Z,-0.5
2019-01-24T01:43:11.367Z,-0.47
2019-01-24T01:43:37.471Z,-0.53
2019-01-24T01:44:03.581Z,-0.53
2019-01-24T01:44:29.686Z,-0.61
2019-01-24T01:44:55.818Z,-0.56
2019-01-24T01:45:21.926Z,-0.52
2019-01-24T01:45:48.031Z,-0.67
2019-01-24T01:46:14.137Z,-0.65
2019-01-24T01:46:40.237Z,-0.77
2019-01-24T01:47:06.370Z,-0.7
2019-01-24T01:47:32.473Z,-0.74
2019-01-24T01:47:58.598Z,-0.65
2019-01-24T01:48:24.731Z,-0.71
2019-01-24T01:48:50.861Z,-0.74
2019-01-24T01:49:16.962Z,-0.71
2019-01-24T01:49:43.062Z,-0.64
2019-01-24T01:50:09.190Z,-0.7
2019-01-24T01:50:35.350Z,-0.5
2019-01-24T01:51:01.458Z,-0.74
2019-01-24T01:51:27.560Z,-0.7
2019-01-24T01:51:53.663Z,-0.74
2019-01-24T01:52:19.767Z,-0.74
2019-01-24T01:52:45.871Z,-0.71
2019-01-24T01:53:11.972Z,-0.86
2019-01-24T01:53:38.109Z,-0.74
2019-01-24T01:54:04.237Z,-0.75
2019-01-24T01:54:30.335Z,-0.75
2019-01-24T01:54:56.472Z,-0.7
2019-01-24T01:55:22.572Z,-0.71
2019-01-24T01:55:48.700Z,-0.75
2019-01-24T01:56:14.807Z,-0.71
2019-01-24T01:56:40.933Z,-0.67
2019-01-24T01:57:07.036Z,-0.67
2019-01-24T01:57:33.138Z,-0.68
2019-01-24T01:57:59.250Z,-0.71
2019-01-24T01:58:25.349Z,-0.71
2019-01-24T01:58:51.454Z,-0.64
2019-01-24T01:59:17.555Z,-0.71
2019-01-24T01:59:43.658Z,-0.67
2019-01-24T02:00:09.791Z,-0.67
2019-01-24T02:00:35.921Z,-0.65
2019-01-24T02:01:02.022Z,-0.65
2019-01-24T02:01:28.126Z,-0.67
2019-01-24T02:01:54.237Z,-0.67
2019-01-24T02:02:20.339Z,-0.67
2019-01-24T02:02:46.439Z,-0.64
2019-01-24T02:03:12.566Z,-0.64
2019-01-24T02:03:38.676Z,-0.64
2019-01-24T02:04:04.804Z,-0.7
2019-01-24T02:04:30.909Z,-0.64
2019-01-24T02:04:57.998Z,-0.68
2019-01-24T02:05:24.137Z,-0.65
2019-01-24T02:05:50.241Z,-0.59
2019-01-24T02:06:16.346Z,-0.56
2019-01-24T02:06:42.479Z,-0.59
2019-01-24T02:07:08.612Z,-0.52
2019-01-24T02:07:34.715Z,-0.53
2019-01-24T02:08:00.853Z,-0.67
2019-01-24T02:08:26.954Z,-0.64
2019-01-24T02:08:53.088Z,-0.57
2019-01-24T02:09:19.176Z,-0.64
2019-01-24T02:09:45.263Z,-0.61
2019-01-24T02:10:11.377Z,-0.64
2019-01-24T02:10:37.464Z,-0.59
2019-01-24T02:11:03.554Z,-0.65
2019-01-24T02:11:29.642Z,-0.7
2019-01-24T02:11:55.743Z,-0.65
2019-01-24T02:12:21.842Z,-0.7
2019-01-24T02:12:47.943Z,-0.64
2019-01-24T02:13:14.047Z,-0.64
2019-01-24T02:13:40.149Z,-0.61
2019-01-24T02:14:06.248Z,-0.64
2019-01-24T02:14:32.352Z,-0.61
2019-01-24T02:14:58.456Z,-0.62
2019-01-24T02:15:24.558Z,-0.65
2019-01-24T02:15:50.663Z,-0.64
2019-01-24T02:16:16.815Z,-0.61
2019-01-24T02:16:42.947Z,-0.75
2019-01-24T02:17:09.050Z,-0.62
2019-01-24T02:17:35.184Z,-0.72
2019-01-24T02:18:01.280Z,-0.72
2019-01-24T02:18:27.387Z,-0.59
2019-01-24T02:18:53.496Z,-0.61
2019-01-24T02:19:19.628Z,-0.62
2019-01-24T02:19:45.734Z,-0.64
2019-01-24T02:20:11.872Z,-0.68
2019-01-24T02:20:37.974Z,-0.52
2019-01-24T02:21:04.071Z,-0.53
2019-01-24T02:21:30.209Z,-0.5
2019-01-24T02:21:56.346Z,-0.53
2019-01-24T02:22:22.443Z,-0.67
2019-01-24T02:22:48.547Z,-0.65
2019-01-24T02:23:14.648Z,-0.65
2019-01-24T02:23:40.751Z,-0.61
2019-01-24T02:24:06.853Z,-0.68
2019-01-24T02:24:33.011Z,-0.65
2019-01-24T02:24:59.119Z,-0.61
2019-01-24T02:25:25.247Z,-0.64
2019-01-24T02:25:51.350Z,-0.62
2019-01-24T02:26:17.459Z,-0.61
2019-01-24T02:26:43.561Z,-0.67
2019-01-24T02:27:09.664Z,-0.67
2019-01-24T02:27:35.766Z,-0.64
2019-01-24T02:28:01.866Z,-0.65
2019-01-24T02:28:27.964Z,-0.56
2019-01-24T02:28:54.064Z,-0.61
2019-01-24T02:29:20.168Z,-0.65
2019-01-24T02:29:46.268Z,-0.67
2019-01-24T02:30:12.403Z,-0.67
2019-01-24T02:30:38.512Z,-0.64
2019-01-24T02:31:04.648Z,-0.62
2019-01-24T02:31:30.776Z,-0.62
2019-01-24T02:31:56.871Z,-0.59
2019-01-24T02:32:23.003Z,-0.5
2019-01-24T02:32:49.158Z,-0.61
2019-01-24T02:33:15.262Z,-0.5
2019-01-24T02:33:41.361Z,-0.52
2019-01-24T02:34:07.494Z,-0.54
2019-01-24T02:34:33.599Z,-0.61
2019-01-24T02:35:00.729Z,-0.64
2019-01-24T02:35:26.826Z,-0.64
2019-01-24T02:35:52.946Z,-0.62
2019-01-24T02:36:19.059Z,-0.59
2019-01-24T02:36:45.152Z,-0.54
2019-01-24T02:37:11.283Z,-0.62
2019-01-24T02:37:37.391Z,-0.53
2019-01-24T02:38:03.529Z,-0.52
2019-01-24T02:38:29.656Z,-0.52
2019-01-24T02:38:55.768Z,-0.52
2019-01-24T02:39:21.873Z,-0.53
2019-01-24T02:39:47.978Z,-0.56
2019-01-24T02:40:14.103Z,-0.49
2019-01-24T02:40:40.240Z,-0.52
2019-01-24T02:41:06.339Z,-0.56
2019-01-24T02:41:32.442Z,-0.71
2019-01-24T02:41:58.543Z,-0.59
2019-01-24T02:42:24.676Z,-0.64
2019-01-24T02:42:50.781Z,-0.64
2019-01-24T02:43:16.878Z,-0.64
2019-01-24T02:43:42.978Z,-0.59
2019-01-24T02:44:09.087Z,-0.62
2019-01-24T02:44:35.218Z,-0.54
2019-01-24T02:45:01.329Z,-0.53
2019-01-24T02:45:27.487Z,-0.56
2019-01-24T02:45:53.644Z,-0.59
2019-01-24T02:46:19.752Z,-0.52
2019-01-24T02:46:45.849Z,-0.59
2019-01-24T02:47:11.980Z,-0.61
2019-01-24T02:47:38.089Z,-0.67
2019-01-24T02:48:04.185Z,-0.61
2019-01-24T02:48:30.294Z,-0.62
2019-01-24T02:48:56.430Z,-0.64
2019-01-24T02:49:22.527Z,-0.56
2019-01-24T02:49:48.626Z,-0.65
2019-01-24T02:50:14.737Z,-0.71
2019-01-24T02:50:40.834Z,-0.65
2019-01-24T02:51:06.937Z,-0.64
2019-01-24T02:51:33.036Z,-0.64
2019-01-24T02:51:59.142Z,-0.62
2019-01-24T02:52:25.243Z,-0.67
2019-01-24T02:52:51.383Z,-0.71
2019-01-24T02:53:17.477Z,-0.65
2019-01-24T02:53:43.610Z,-0.61
2019-01-24T02:54:09.709Z,-0.7
2019-01-24T02:54:35.848Z,-0.7
2019-01-24T02:55:01.947Z,-0.61
2019-01-24T02:55:28.058Z,-0.64
2019-01-24T02:55:54.270Z,-0.74
2019-01-24T02:56:20.403Z,-0.78
2019-01-24T02:56:46.503Z,-0.8
2019-01-24T02:57:12.627Z,-0.85
2019-01-24T02:57:38.736Z,-0.91
2019-01-24T02:58:04.836Z,-0.93
2019-01-24T02:58:30.949Z,-0.96
2019-01-24T02:58:57.050Z,-0.94
2019-01-24T02:59:23.156Z,-1.02
2019-01-24T02:59:49.258Z,-0.9
2019-01-24T03:00:15.359Z,-0.94
2019-01-24T03:00:41.465Z,-0.89
2019-01-24T03:01:07.561Z,-0.97
2019-01-24T03:01:33.698Z,-0.97
2019-01-24T03:01:59.826Z,-0.85
2019-01-24T03:02:25.934Z,-0.96
2019-01-24T03:02:52.066Z,-1.04
2019-01-24T03:03:18.167Z,-1.04
2019-01-24T03:03:44.269Z,-1.04
2019-01-24T03:04:10.376Z,-0.99
2019-01-24T03:04:36.473Z,-1.04
2019-01-24T03:05:03.609Z,-1.01
2019-01-24T03:05:29.760Z,-0.96
2019-01-24T03:05:55.867Z,-1.02
2019-01-24T03:06:22.002Z,-1.02
2019-01-24T03:06:48.130Z,-1.01
2019-01-24T03:07:14.231Z,-0.99
2019-01-24T03:07:40.336Z,-1.04
2019-01-24T03:08:06.447Z,-1.2
2019-01-24T03:08:32.547Z,-1.22
2019-01-24T03:08:58.648Z,-1.27
2019-01-24T03:09:24.751Z,-1.22
2019-01-24T03:09:50.859Z,-1.26
2019-01-24T03:10:17.014Z,-1.27
2019-01-24T03:10:43.120Z,-1.22
2019-01-24T03:11:09.225Z,-1.33
2019-01-24T03:11:35.332Z,-1.3
2019-01-24T03:12:01.429Z,-1.35
2019-01-24T03:12:27.537Z,-1.32
2019-01-24T03:12:53.636Z,-1.37
2019-01-24T03:13:19.736Z,-1.33
2019-01-24T03:13:45.871Z,-1.3
2019-01-24T03:14:12.010Z,-1.26
2019-01-24T03:14:38.115Z,-1.35
2019-01-24T03:15:04.244Z,-1.22
2019-01-24T03:15:30.406Z,-1.32
2019-01-24T03:15:56.515Z,-1.26
2019-01-24T03:16:22.626Z,-1.35
2019-01-24T03:16:48.749Z,-1.41
2019-01-24T03:17:14.882Z,-1.43
2019-01-24T03:17:41.009Z,-1.44
2019-01-24T03:18:07.132Z,-1.53
2019-01-24T03:18:33.288Z,-1.48
2019-01-24T03:18:59.390Z,-1.47
2019-01-24T03:19:25.515Z,-1.56
2019-01-24T03:19:51.633Z,-1.53
2019-01-24T03:20:17.739Z,-1.56
2019-01-24T03:20:43.836Z,-1.68
2019-01-24T03:21:09.970Z,-1.68
2019-01-24T03:21:36.072Z,-1.71
2019-01-24T03:22:02.176Z,-1.77
2019-01-24T03:22:28.305Z,-1.65
2019-01-24T03:22:54.435Z,-1.65
2019-01-24T03:23:20.540Z,-1.71
2019-01-24T03:23:46.645Z,-1.71
2019-01-24T03:24:12.747Z,-1.72
2019-01-24T03:24:38.899Z,-1.66
2019-01-24T03:25:05.037Z,-1.69
2019-01-24T03:25:31.132Z,-1.65
2019-01-24T03:25:57.242Z,-1.74
2019-01-24T03:26:23.370Z,-1.77
2019-01-24T03:26:49.500Z,-1.8
2019-01-24T03:27:15.626Z,-1.76
2019-01-24T03:27:41.786Z,-1.77
2019-01-24T03:28:07.885Z,-1.9
2019-01-24T03:28:34.005Z,-1.9
2019-01-24T03:29:00.129Z,-1.84
2019-01-24T03:29:26.233Z,-1.87
2019-01-24T03:29:52.341Z,-1.89
2019-01-24T03:30:18.484Z,-1.79
2019-01-24T03:30:44.588Z,-1.86
2019-01-24T03:31:10.752Z,-1.71
2019-01-24T03:31:36.851Z,-1.79
2019-01-24T03:32:03.004Z,-1.76
2019-01-24T03:32:29.219Z,-1.71
2019-01-24T03:32:55.345Z,-1.76
2019-01-24T03:33:21.491Z,-1.68
2019-01-24T03:33:47.622Z,-1.66
2019-01-24T03:34:13.735Z,-1.72
2019-01-24T03:34:39.861Z,-1.65
2019-01-24T03:35:06.959Z,-1.54
2019-01-24T03:35:33.058Z,-1.62
2019-01-24T03:35:59.158Z,-1.59
2019-01-24T03:36:25.288Z,-1.54
2019-01-24T03:36:51.416Z,-1.58
2019-01-24T03:37:17.548Z,-1.56
2019-01-24T03:37:43.664Z,-1.5
2019-01-24T03:38:09.762Z,-1.65
2019-01-24T03:38:35.884Z,-1.5
2019-01-24T03:39:01.990Z,-1.54
2019-01-24T03:39:28.095Z,-1.56
2019-01-24T03:39:54.221Z,-1.58
2019-01-24T03:40:20.347Z,-1.58
2019-01-24T03:40:46.477Z,-1.53
2019-01-24T03:41:12.578Z,-1.51
2019-01-24T03:41:38.688Z,-1.59
2019-01-24T03:42:04.794Z,-1.65
2019-01-24T03:42:30.925Z,-1.62
2019-01-24T03:42:57.056Z,-1.65
2019-01-24T03:43:23.187Z,-1.72
2019-01-24T03:43:49.291Z,-1.8
2019-01-24T03:44:15.395Z,-1.94
2019-01-24T03:44:41.501Z,-1.87
2019-01-24T03:45:07.630Z,-1.94
2019-01-24T03:45:33.781Z,-2.02
2019-01-24T03:45:59.888Z,-2.01
2019-01-24T03:46:26.048Z,-2.05
2019-01-24T03:46:52.090Z,-2.04
2019-01-24T03:47:18.248Z,-2.08
2019-01-24T03:47:44.348Z,-2.1
2019-01-24T03:48:10.445Z,-2.08
2019-01-24T03:48:36.547Z,-2.08
2019-01-24T03:49:02.676Z,-2.19
2019-01-24T03:49:28.830Z,-2.08
2019-01-24T03:49:54.934Z,-2.16
2019-01-24T03:50:21.147Z,-2.18
2019-01-24T03:50:47.247Z,-2.15
2019-01-24T03:51:13.354Z,-2.25
2019-01-24T03:51:39.455Z,-2.21
2019-01-24T03:52:05.562Z,-2.23
2019-01-24T03:52:31.663Z,-2.15
2019-01-24T03:52:57.768Z,-2.16
2019-01-24T03:53:23.901Z,-2.21
2019-01-24T03:53:50.082Z,-2.23
2019-01-24T03:54:16.185Z,-2.15
2019-01-24T03:54:42.292Z,-2.16
2019-01-24T03:55:08.398Z,-2.26
2019-01-24T03:55:34.584Z,-2.3
2019-01-24T03:56:00.684Z,-2.23
2019-01-24T03:56:26.788Z,-2.32
2019-01-24T03:56:52.943Z,-2.26
2019-01-24T03:57:19.047Z,-2.21
2019-01-24T03:57:45.183Z,-2.19
2019-01-24T03:58:11.369Z,-2.25
2019-01-24T03:58:37.466Z,-2.23
2019-01-24T03:59:03.570Z,-2.28
2019-01-24T03:59:29.664Z,-2.25
2019-01-24T03:59:55.781Z,-2.28
2019-01-24T04:00:21.906Z,-2.25
2019-01-24T04:00:48.006Z,-2.22
2019-01-24T04:01:14.112Z,-2.12
2019-01-24T04:01:40.212Z,-2.13
2019-01-24T04:02:06.318Z,-2.13
2019-01-24T04:02:32.422Z,-2.23
2019-01-24T04:02:58.551Z,-2.25
2019-01-24T04:03:24.680Z,-2.22
2019-01-24T04:03:50.810Z,-2.23
2019-01-24T04:04:16.911Z,-2.23
2019-01-24T04:04:43.073Z,-2.28
2019-01-24T04:05:11.868Z,-2.44
2019-01-24T04:05:36.309Z,-2.55
2019-01-24T04:06:02.440Z,-2.42
2019-01-24T04:06:28.548Z,-2.56
2019-01-24T04:06:54.649Z,-2.58
2019-01-24T04:07:20.751Z,-2.5
2019-01-24T04:07:46.913Z,-2.45
2019-01-24T04:08:12.980Z,-2.53
2019-01-24T04:08:39.081Z,-2.56
2019-01-24T04:09:05.181Z,-2.56
2019-01-24T04:09:31.284Z,-2.53
2019-01-24T04:09:57.388Z,-2.47
2019-01-24T04:10:23.490Z,-2.34
2019-01-24T04:10:49.587Z,-2.34
2019-01-24T04:11:15.697Z,-2.32
2019-01-24T04:11:41.803Z,-2.37
2019-01-24T04:12:08.454Z,-2.32
2019-01-24T04:12:34.736Z,-2.23
2019-01-24T04:13:00.882Z,-2.28
2019-01-24T04:13:27.033Z,-2.15
2019-01-24T04:13:53.164Z,-2.15
2019-01-24T04:14:19.285Z,-2.21
2019-01-24T04:14:45.389Z,-2.15
2019-01-24T04:15:11.497Z,-2.1
2019-01-24T04:15:37.595Z,-2.15
2019-01-24T04:16:03.728Z,-2.26
2019-01-24T04:16:29.830Z,-2.19
2019-01-24T04:16:55.966Z,-2.13
2019-01-24T04:17:22.063Z,-2.07
2019-01-24T04:17:48.166Z,-2.13
2019-01-24T04:18:14.266Z,-2.16
2019-01-24T04:18:40.393Z,-2.26
2019-01-24T04:19:06.525Z,-2.16
2019-01-24T04:19:32.627Z,-2.19
2019-01-24T04:19:58.754Z,-2.25
2019-01-24T04:20:25.011Z,-2.25
2019-01-24T04:20:51.221Z,-2.22
2019-01-24T04:21:17.325Z,-2.21
2019-01-24T04:21:44.267Z,-2.21
2019-01-24T04:22:10.378Z,-2.21
2019-01-24T04:22:36.505Z,-2.23
2019-01-24T04:23:02.606Z,-2.23
2019-01-24T04:23:28.707Z,-2.15
2019-01-24T04:23:54.816Z,-2.1
2019-01-24T04:24:20.946Z,-1.98
2019-01-24T04:24:47.054Z,-1.94
2019-01-24T04:25:13.180Z,-2
2019-01-24T04:25:39.311Z,-1.87
2019-01-24T04:26:05.495Z,-1.86
2019-01-24T04:26:31.601Z,-1.84
2019-01-24T04:26:57.755Z,-1.89
2019-01-24T04:27:23.852Z,-1.86
2019-01-24T04:27:49.993Z,-1.77
2019-01-24T04:28:16.094Z,-1.79
2019-01-24T04:28:42.199Z,-1.72
2019-01-24T04:29:08.333Z,-1.8
2019-01-24T04:29:34.441Z,-1.77
2019-01-24T04:30:00.588Z,-1.82
2019-01-24T04:30:26.718Z,-1.9
2019-01-24T04:30:52.826Z,-1.83
2019-01-24T04:31:18.929Z,-1.83
2019-01-24T04:31:45.031Z,-1.83
2019-01-24T04:32:11.139Z,-1.9
2019-01-24T04:32:37.242Z,-1.98
2019-01-24T04:33:03.358Z,-1.98
2019-01-24T04:33:29.471Z,-2.04
2019-01-24T04:33:55.571Z,-2
2019-01-24T04:34:21.679Z,-2.01
2019-01-24T04:34:47.776Z,-2.07
2019-01-24T04:35:19.620Z,-2.02
2019-01-24T04:35:41.004Z,-2.07
2019-01-24T04:36:07.109Z,-2.04
2019-01-24T04:36:33.214Z,-1.95
2019-01-24T04:36:59.318Z,-1.87
2019-01-24T04:37:25.479Z,-1.98
2019-01-24T04:37:51.610Z,-1.87
2019-01-24T04:38:17.710Z,-1.83
2019-01-24T04:38:43.815Z,-1.77
2019-01-24T04:39:09.922Z,-1.83
2019-01-24T04:39:36.014Z,-1.72
2019-01-24T04:40:02.125Z,-1.76
2019-01-24T04:40:28.241Z,-1.71
2019-01-24T04:40:54.344Z,-1.65
2019-01-24T04:41:20.478Z,-1.66
2019-01-24T04:41:46.591Z,-1.66
2019-01-24T04:42:12.706Z,-1.69
2019-01-24T04:42:38.842Z,-1.61
2019-01-24T04:43:04.952Z,-1.56
2019-01-24T04:43:31.087Z,-1.54
2019-01-24T04:43:57.183Z,-1.53
2019-01-24T04:44:23.281Z,-1.56
2019-01-24T04:44:49.414Z,-1.61
2019-01-24T04:45:15.510Z,-1.54
2019-01-24T04:45:41.615Z,-1.53
2019-01-24T04:46:07.720Z,-1.56
2019-01-24T04:46:33.824Z,-1.58
2019-01-24T04:46:59.926Z,-1.51
2019-01-24T04:47:26.035Z,-1.5
2019-01-24T04:47:52.129Z,-1.51
2019-01-24T04:48:18.262Z,-1.51
2019-01-24T04:48:44.369Z,-1.58
2019-01-24T04:49:10.505Z,-1.58
2019-01-24T04:49:36.610Z,-1.56
2019-01-24T04:50:02.716Z,-1.58
2019-01-24T04:50:28.926Z,-1.66
2019-01-24T04:50:55.016Z,-1.62
2019-01-24T04:51:21.127Z,-1.68
2019-01-24T04:51:47.225Z,-1.62
2019-01-24T04:52:13.356Z,-1.68
2019-01-24T04:52:39.491Z,-1.79
2019-01-24T04:53:05.594Z,-1.83
2019-01-24T04:53:31.702Z,-1.89
2019-01-24T04:53:57.827Z,-1.87
2019-01-24T04:54:23.986Z,-1.89
2019-01-24T04:54:50.109Z,-1.87
2019-01-24T04:55:16.194Z,-2.01
2019-01-24T04:55:42.297Z,-2.01
2019-01-24T04:56:08.403Z,-2.01
2019-01-24T04:56:34.504Z,-2.02
2019-01-24T04:57:00.646Z,-1.98
2019-01-24T04:57:26.772Z,-1.95
2019-01-24T04:57:54.753Z,-1.97
2019-01-24T04:58:19.988Z,-1.98
2019-01-24T04:58:46.091Z,-1.98
2019-01-24T04:59:12.196Z,-2
2019-01-24T04:59:38.325Z,-1.97
2019-01-24T05:00:04.428Z,-1.98
2019-01-24T05:00:30.530Z,-2.02
2019-01-24T05:00:56.634Z,-1.98
2019-01-24T05:01:22.766Z,-1.89
2019-01-24T05:01:48.868Z,-1.87
2019-01-24T05:02:14.968Z,-1.97
2019-01-24T05:02:41.123Z,-1.92
2019-01-24T05:03:07.222Z,-1.89
2019-01-24T05:03:33.332Z,-1.83
2019-01-24T05:03:59.487Z,-1.84
2019-01-24T05:04:25.593Z,-1.92
2019-01-24T05:04:51.719Z,-1.86
2019-01-24T05:05:17.882Z,-1.89
2019-01-24T05:05:44.978Z,-1.8
2019-01-24T05:06:11.079Z,-1.9
2019-01-24T05:06:37.186Z,-1.84
2019-01-24T05:07:03.286Z,-1.9
2019-01-24T05:07:29.390Z,-1.92
2019-01-24T05:07:55.493Z,-1.94
2019-01-24T05:08:21.590Z,-2.05
2019-01-24T05:08:47.691Z,-2.04
2019-01-24T05:09:13.798Z,-2.07
2019-01-24T05:09:39.893Z,-2.04
2019-01-24T05:10:06.028Z,-2.04
2019-01-24T05:10:32.128Z,-2.02
2019-01-24T05:10:58.285Z,-2.02
2019-01-24T05:11:24.389Z,-2.1
2019-01-24T05:11:50.497Z,-2.15
2019-01-24T05:12:16.594Z,-2.16
2019-01-24T05:12:42.741Z,-2.1
2019-01-24T05:13:08.870Z,-2.18
2019-01-24T05:13:34.970Z,-2.15
2019-01-24T05:14:01.076Z,-2.16
2019-01-24T05:14:27.180Z,-2.21
2019-01-24T05:14:53.305Z,-2.08
2019-01-24T05:15:19.407Z,-2.05
2019-01-24T05:15:45.536Z,-2.1
2019-01-24T05:16:11.653Z,-2.05
2019-01-24T05:16:37.769Z,-2.15
2019-01-24T05:17:03.930Z,-2.16
2019-01-24T05:17:30.095Z,-2.16
2019-01-24T05:17:56.223Z,-2.13
2019-01-24T05:18:22.328Z,-2.21
2019-01-24T05:18:48.430Z,-2.13
2019-01-24T05:19:14.530Z,-2.13
2019-01-24T05:19:40.637Z,-2.12
2019-01-24T05:20:06.732Z,-2.12
2019-01-24T05:20:32.828Z,-2.15
2019-01-24T05:20:58.935Z,-2.18
2019-01-24T05:21:25.035Z,-2.25
2019-01-24T05:21:51.141Z,-2.19
2019-01-24T05:22:17.272Z,-2.13
2019-01-24T05:22:43.374Z,-2.19
2019-01-24T05:23:09.501Z,-2.21
2019-01-24T05:23:35.603Z,-2.22
2019-01-24T05:24:01.729Z,-2.1
2019-01-24T05:24:27.844Z,-2.07
2019-01-24T05:24:53.941Z,-2.07
2019-01-24T05:25:20.078Z,-2
2019-01-24T05:25:46.179Z,-1.98
2019-01-24T05:26:12.312Z,-1.87
2019-01-24T05:26:38.416Z,-1.83
2019-01-24T05:27:04.583Z,-1.77
2019-01-24T05:27:30.824Z,-1.77
2019-01-24T05:27:56.935Z,-1.69
2019-01-24T05:28:23.039Z,-1.74
2019-01-24T05:28:49.186Z,-1.71
2019-01-24T05:29:15.284Z,-1.68
2019-01-24T05:29:41.390Z,-1.66
2019-01-24T05:30:07.491Z,-1.56
2019-01-24T05:30:33.592Z,-1.54
2019-01-24T05:30:59.690Z,-1.48
2019-01-24T05:31:25.807Z,-1.54
2019-01-24T05:31:51.910Z,-1.48
2019-01-24T05:32:18.013Z,-1.46
2019-01-24T05:32:44.120Z,-1.5
2019-01-24T05:33:11.099Z,-1.46
2019-01-24T05:33:37.205Z,-1.4
2019-01-24T05:34:03.304Z,-1.35
2019-01-24T05:34:29.439Z,-1.33
2019-01-24T05:34:55.571Z,-1.38
2019-01-24T05:35:21.675Z,-1.3
2019-01-24T05:35:47.795Z,-1.35
2019-01-24T05:36:13.890Z,-1.27
2019-01-24T05:36:39.997Z,-1.27
2019-01-24T05:37:06.100Z,-1.35
2019-01-24T05:37:32.202Z,-1.37
2019-01-24T05:37:58.361Z,-1.35